createdAt,value
2017-06-17T00:00:29.960Z,0
2017-06-17T00:01:40.330Z,0
2017-06-17T00:02:50.682Z,0
2017-06-17T00:04:00.768Z,0
2017-06-17T00:05:10.791Z,0
2017-06-17T00:06:20.825Z,0
2017-06-17T00:07:31.181Z,0
2017-06-17T00:08:41.538Z,0
2017-06-17T00:09:51.937Z,0
2017-06-17T00:11:01.967Z,0
2017-06-17T00:12:12.327Z,0
2017-06-17T00:13:22.373Z,0
2017-06-17T00:14:32.738Z,0
2017-06-17T00:15:42.766Z,0
2017-06-17T00:16:53.115Z,0
2017-06-17T00:18:03.141Z,0
2017-06-17T00:19:13.487Z,0
2017-06-17T00:20:23.823Z,0
2017-06-17T00:21:34.191Z,0
2017-06-17T00:22:44.555Z,0
2017-06-17T00:23:54.905Z,0
2017-06-17T00:25:05.256Z,0
2017-06-17T00:26:15.600Z,0
2017-06-17T00:27:25.997Z,0
2017-06-17T00:28:36.056Z,0
2017-06-17T00:29:46.098Z,0
2017-06-17T00:30:56.443Z,0
2017-06-17T00:32:06.479Z,0
2017-06-17T00:33:16.540Z,0
2017-06-17T00:34:26.890Z,0
2017-06-17T00:35:37.243Z,0
2017-06-17T00:36:47.288Z,0
2017-06-17T00:37:57.647Z,0
2017-06-17T00:39:07.718Z,0
2017-06-17T00:40:18.048Z,0
2017-06-17T00:41:28.392Z,0
2017-06-17T00:42:38.740Z,0
2017-06-17T00:43:49.393Z,0
2017-06-17T00:44:59.733Z,0
2017-06-17T00:46:10.084Z,0
2017-06-17T00:47:20.431Z,0
2017-06-17T00:48:30.787Z,0
2017-06-17T00:49:40.855Z,0
2017-06-17T00:50:50.632Z,0
2017-06-17T00:52:00.343Z,0
2017-06-17T00:53:10.687Z,0
2017-06-17T00:54:21.030Z,0
2017-06-17T00:55:31.053Z,0
2017-06-17T00:56:41.076Z,0
2017-06-17T00:57:51.413Z,0
2017-06-17T00:59:01.455Z,0
2017-06-17T01:00:10.856Z,0
2017-06-17T01:01:21.211Z,0
2017-06-17T01:02:31.562Z,0
2017-06-17T01:03:41.932Z,0
2017-06-17T01:04:51.975Z,0
2017-06-17T01:06:02.013Z,0
2017-06-17T01:07:12.039Z,0
2017-06-17T01:08:22.081Z,0
2017-06-17T01:09:32.445Z,0
2017-06-17T01:10:42.795Z,0
2017-06-17T01:11:52.835Z,0
2017-06-17T01:13:02.875Z,0
2017-06-17T01:14:13.213Z,0
2017-06-17T01:15:23.248Z,0
2017-06-17T01:16:33.589Z,0
2017-06-17T01:17:43.936Z,0
2017-06-17T01:18:54.277Z,0
2017-06-17T01:20:04.368Z,0
2017-06-17T01:21:14.085Z,0
2017-06-17T01:22:24.113Z,0
2017-06-17T01:23:34.137Z,0
2017-06-17T01:24:44.166Z,0
2017-06-17T01:25:54.247Z,0
2017-06-17T01:27:04.278Z,0
2017-06-17T01:28:14.306Z,0
2017-06-17T01:29:24.663Z,0
2017-06-17T01:30:35.010Z,0
2017-06-17T01:31:45.415Z,0
2017-06-17T01:32:55.755Z,0
2017-06-17T01:34:06.098Z,0
2017-06-17T01:35:16.447Z,0
2017-06-17T01:36:26.810Z,0
2017-06-17T01:37:37.198Z,0
2017-06-17T01:38:47.546Z,0
2017-06-17T01:39:57.590Z,0
2017-06-17T01:41:07.322Z,0
2017-06-17T01:42:17.661Z,0
2017-06-17T01:43:28.299Z,0
2017-06-17T01:44:38.653Z,0
2017-06-17T01:45:48.678Z,0
2017-06-17T01:46:59.038Z,0
2017-06-17T01:48:09.393Z,0
2017-06-17T01:49:19.409Z,0
2017-06-17T01:50:29.440Z,0
2017-06-17T01:51:39.789Z,0
2017-06-17T01:52:49.819Z,0
2017-06-17T01:53:59.845Z,0
2017-06-17T01:55:10.233Z,0
2017-06-17T01:56:20.587Z,0
2017-06-17T01:57:30.626Z,0
2017-06-17T01:58:40.967Z,0
2017-06-17T01:59:51.334Z,0
2017-06-17T02:01:01.412Z,0
2017-06-17T02:02:11.443Z,0
2017-06-17T02:03:21.473Z,0
2017-06-17T02:04:31.513Z,0
2017-06-17T02:05:41.857Z,0
2017-06-17T02:06:52.264Z,0
2017-06-17T02:08:02.282Z,0
2017-06-17T02:09:12.619Z,0
2017-06-17T02:10:22.656Z,0
2017-06-17T02:11:32.693Z,0
2017-06-17T02:12:43.036Z,0
2017-06-17T02:13:53.376Z,0
2017-06-17T02:15:03.720Z,4
2017-06-17T02:16:14.064Z,4
2017-06-17T02:17:24.423Z,4
2017-06-17T02:18:34.845Z,4
2017-06-17T02:19:45.181Z,0
2017-06-17T02:20:55.541Z,4
2017-06-17T02:22:05.574Z,4
2017-06-17T02:23:15.921Z,4
2017-06-17T02:24:26.260Z,4
2017-06-17T02:25:36.304Z,8
2017-06-17T02:26:46.656Z,8
2017-06-17T02:27:56.712Z,8
2017-06-17T02:29:06.761Z,8
2017-06-17T02:30:17.121Z,12
2017-06-17T02:31:26.865Z,12
2017-06-17T02:32:36.890Z,12
2017-06-17T02:33:46.611Z,16
2017-06-17T02:34:56.957Z,16
2017-06-17T02:36:07.299Z,20
2017-06-17T02:37:17.633Z,24
2017-06-17T02:38:27.982Z,28
2017-06-17T02:39:38.327Z,36
2017-06-17T02:40:48.676Z,40
2017-06-17T02:41:59.018Z,44
2017-06-17T02:43:09.044Z,48
2017-06-17T02:44:19.079Z,52
2017-06-17T02:45:29.428Z,60
2017-06-17T02:46:39.471Z,68
2017-06-17T02:47:49.856Z,76
2017-06-17T02:49:00.201Z,88
2017-06-17T02:50:10.230Z,100
2017-06-17T02:51:20.583Z,108
2017-06-17T02:52:30.929Z,120
2017-06-17T02:53:40.958Z,136
2017-06-17T02:54:51.301Z,152
2017-06-17T02:56:01.656Z,164
2017-06-17T02:57:12.002Z,180
2017-06-17T02:58:22.341Z,196
2017-06-17T02:59:32.757Z,212
2017-06-17T03:00:42.778Z,232
2017-06-17T03:32:54.611Z,1096
2017-06-17T03:34:04.630Z,1108
2017-06-17T03:35:14.660Z,1120
2017-06-17T03:36:24.692Z,1136
2017-06-17T03:37:34.452Z,1140
2017-06-17T03:38:44.793Z,1156
2017-06-17T03:39:55.132Z,1180
2017-06-17T03:41:05.500Z,1192
2017-06-17T03:42:14.905Z,1200
2017-06-17T03:43:25.297Z,1204
2017-06-17T03:44:35.618Z,1200
2017-06-17T03:45:45.961Z,1188
2017-06-17T03:46:56.305Z,1196
2017-06-17T03:48:06.339Z,1176
2017-06-17T03:49:16.375Z,1144
2017-06-17T03:50:26.720Z,1124
2017-06-17T03:51:37.302Z,1132
2017-06-17T03:52:47.637Z,1156
2017-06-17T03:53:57.973Z,1196
2017-06-17T03:55:08.044Z,1232
2017-06-17T03:56:17.768Z,1272
2017-06-17T03:57:27.790Z,1312
2017-06-17T03:58:38.119Z,1352
2017-06-17T03:59:47.841Z,1380
2017-06-17T04:00:57.919Z,1420
2017-06-17T04:02:08.265Z,1456
2017-06-17T04:03:18.293Z,1480
2017-06-17T04:04:28.328Z,1504
2017-06-17T04:05:38.664Z,1532
2017-06-17T04:06:49.058Z,1568
2017-06-17T04:07:59.394Z,1608
2017-06-17T04:09:09.771Z,1652
2017-06-17T04:10:20.596Z,1688
2017-06-17T04:11:30.965Z,1708
2017-06-17T04:12:41.357Z,1732
2017-06-17T04:13:51.396Z,1776
2017-06-17T04:15:01.741Z,1820
2017-06-17T04:16:12.090Z,1852
2017-06-17T04:17:21.794Z,1888
2017-06-17T04:18:32.200Z,1928
2017-06-17T04:19:42.541Z,1968
2017-06-17T04:20:52.567Z,2016
2017-06-17T04:22:02.635Z,2080
2017-06-17T04:23:12.977Z,2156
2017-06-17T04:24:23.003Z,2220
2017-06-17T04:25:33.032Z,2240
2017-06-17T04:26:43.373Z,2240
2017-06-17T04:27:53.724Z,2248
2017-06-17T04:29:04.064Z,2260
2017-06-17T04:30:14.470Z,2260
2017-06-17T04:31:24.818Z,2248
2017-06-17T04:32:35.163Z,2280
2017-06-17T04:33:45.516Z,2328
2017-06-17T04:34:55.861Z,2380
2017-06-17T04:36:06.264Z,2444
2017-06-17T04:37:16.611Z,2516
2017-06-17T04:38:26.944Z,2564
2017-06-17T04:39:37.279Z,2600
2017-06-17T04:40:47.620Z,2648
2017-06-17T04:41:57.711Z,2708
2017-06-17T04:43:07.967Z,2764
2017-06-17T04:44:18.000Z,2824
2017-06-17T04:45:28.337Z,2888
2017-06-17T04:46:38.048Z,2940
2017-06-17T04:47:48.391Z,3012
2017-06-17T04:48:58.746Z,3040
2017-06-17T04:50:09.083Z,2948
2017-06-17T04:51:19.433Z,2836
2017-06-17T04:52:29.768Z,2796
2017-06-17T04:53:39.843Z,2732
2017-06-17T04:54:49.570Z,2764
2017-06-17T04:55:59.926Z,2700
2017-06-17T04:57:10.283Z,2572
2017-06-17T04:58:20.637Z,2652
2017-06-17T04:59:30.712Z,2860
2017-06-17T05:00:41.049Z,3188
2017-06-17T05:01:51.076Z,3688
2017-06-17T05:03:01.422Z,3540
2017-06-17T05:04:11.755Z,3664
2017-06-17T05:05:22.100Z,3768
2017-06-17T05:06:32.455Z,3840
2017-06-17T05:07:42.809Z,3740
2017-06-17T05:08:52.840Z,3824
2017-06-17T05:10:02.571Z,3828
2017-06-17T05:11:12.977Z,3836
2017-06-17T05:12:23.320Z,3004
2017-06-17T05:13:33.658Z,2292
2017-06-17T05:14:44.003Z,2336
2017-06-17T05:15:53.729Z,2344
2017-06-17T05:17:04.128Z,2188
2017-06-17T05:18:14.468Z,1940
2017-06-17T05:19:24.182Z,1724
2017-06-17T05:20:34.530Z,1588
2017-06-17T05:21:44.890Z,1448
2017-06-17T05:22:54.932Z,1500
2017-06-17T05:24:05.271Z,1992
2017-06-17T05:25:15.605Z,2832
2017-06-17T05:26:25.648Z,3276
2017-06-17T05:27:35.978Z,3196
2017-06-17T05:28:46.360Z,3204
2017-06-17T05:29:56.388Z,3544
2017-06-17T05:31:06.419Z,4256
2017-06-17T05:32:16.461Z,5316
2017-06-17T05:33:26.806Z,5680
2017-06-17T05:34:36.580Z,5580
2017-06-17T05:35:46.625Z,6880
2017-06-17T05:36:56.962Z,5348
2017-06-17T05:38:06.990Z,7096
2017-06-17T05:39:17.025Z,8668
2017-06-17T05:40:27.369Z,8332
2017-06-17T05:41:37.715Z,8336
2017-06-17T05:42:48.071Z,8160
2017-06-17T05:43:58.434Z,8184
2017-06-17T05:45:08.784Z,8372
2017-06-17T05:46:18.868Z,8256
2017-06-17T05:47:28.626Z,7924
2017-06-17T05:48:38.972Z,8316
2017-06-17T05:49:49.327Z,8912
2017-06-17T05:50:59.044Z,9048
2017-06-17T05:52:09.440Z,8812
2017-06-17T05:53:19.789Z,9452
2017-06-17T05:54:29.835Z,8464
2017-06-17T05:55:39.852Z,8232
2017-06-17T05:56:49.884Z,7564
2017-06-17T05:58:00.244Z,7676
2017-06-17T05:59:10.598Z,7912
2017-06-17T06:00:20.620Z,7532
2017-06-17T06:01:30.656Z,7420
2017-06-17T06:02:40.988Z,8420
2017-06-17T06:03:51.348Z,8868
2017-06-17T06:05:01.684Z,9640
2017-06-17T06:06:12.033Z,10664
2017-06-17T06:07:21.795Z,11176
2017-06-17T06:08:32.155Z,11904
2017-06-17T06:09:42.238Z,11992
2017-06-17T06:10:52.609Z,12836
2017-06-17T06:12:02.349Z,12640
2017-06-17T06:13:12.382Z,13140
2017-06-17T06:14:22.732Z,12484
2017-06-17T06:15:33.122Z,11852
2017-06-17T06:16:42.836Z,12020
2017-06-17T06:17:52.871Z,11196
2017-06-17T06:19:03.225Z,10760
2017-06-17T06:20:13.561Z,10732
2017-06-17T06:21:23.966Z,10900
2017-06-17T06:22:34.314Z,9448
2017-06-17T06:23:44.645Z,10396
2017-06-17T06:24:54.685Z,10616
2017-06-17T06:26:04.723Z,10488
2017-06-17T06:27:14.492Z,10980
2017-06-17T06:28:24.840Z,11156
2017-06-17T06:29:35.182Z,11532
2017-06-17T06:30:45.543Z,11908
2017-06-17T06:31:55.590Z,8696
2017-06-17T06:33:05.974Z,10396
2017-06-17T06:34:16.316Z,12368
2017-06-17T06:35:26.355Z,12616
2017-06-17T06:36:36.703Z,12276
2017-06-17T06:37:47.065Z,12288
2017-06-17T06:38:57.467Z,12388
2017-06-17T06:40:07.813Z,10496
2017-06-17T06:41:17.840Z,10832
2017-06-17T06:42:28.192Z,11976
2017-06-17T06:43:38.222Z,11248
2017-06-17T06:44:48.303Z,8160
2017-06-17T06:45:58.648Z,9716
2017-06-17T06:47:09.011Z,7028
2017-06-17T06:48:19.372Z,7112
2017-06-17T06:49:29.724Z,7536
2017-06-17T06:50:40.134Z,7804
2017-06-17T06:51:50.159Z,8144
2017-06-17T06:53:00.513Z,9684
2017-06-17T06:54:10.879Z,10464
2017-06-17T06:55:21.253Z,9504
2017-06-17T06:56:31.605Z,10320
2017-06-17T06:57:41.647Z,8116
2017-06-17T06:58:51.694Z,11068
2017-06-17T07:00:02.068Z,9220
2017-06-17T07:01:12.429Z,7428
2017-06-17T07:02:22.831Z,7376
2017-06-17T07:03:33.204Z,8800
2017-06-17T07:04:43.239Z,7272
2017-06-17T07:05:53.276Z,8492
2017-06-17T07:07:03.654Z,6856
2017-06-17T07:08:13.741Z,8560
2017-06-17T07:09:24.103Z,6948
2017-06-17T07:10:34.448Z,9156
2017-06-17T07:11:44.494Z,9608
2017-06-17T07:12:54.853Z,7940
2017-06-17T07:14:05.211Z,8448
2017-06-17T07:15:15.561Z,8532
2017-06-17T07:16:25.605Z,6828
2017-06-17T07:17:35.340Z,7392
2017-06-17T07:18:45.721Z,7008
2017-06-17T07:19:56.094Z,7048
2017-06-17T07:21:06.136Z,6144
2017-06-17T07:22:16.468Z,6248
2017-06-17T07:23:26.820Z,6732
2017-06-17T07:24:37.175Z,6656
2017-06-17T07:25:47.762Z,6944
2017-06-17T07:26:58.117Z,7248
2017-06-17T07:28:08.473Z,6916
2017-06-17T07:29:18.835Z,6612
2017-06-17T07:30:29.184Z,6440
2017-06-17T07:31:39.568Z,5716
2017-06-17T07:32:49.934Z,6336
2017-06-17T07:33:59.654Z,6364
2017-06-17T07:35:09.995Z,6696
2017-06-17T07:36:20.346Z,7120
2017-06-17T07:37:30.432Z,7632
2017-06-17T07:38:40.772Z,8156
2017-06-17T07:39:51.113Z,7880
2017-06-17T07:41:01.463Z,8368
2017-06-17T07:42:11.492Z,8516
2017-06-17T07:43:21.211Z,6296
2017-06-17T07:44:31.556Z,8504
2017-06-17T07:45:41.934Z,6176
2017-06-17T07:46:52.274Z,7324
2017-06-17T07:48:02.319Z,5596
2017-06-17T07:49:12.734Z,7588
2017-06-17T07:50:23.125Z,7680
2017-06-17T07:51:33.501Z,8320
2017-06-17T07:52:43.549Z,9444
2017-06-17T07:53:53.889Z,9664
2017-06-17T07:55:03.912Z,7208
2017-06-17T07:56:14.270Z,7908
2017-06-17T07:57:24.618Z,7112
2017-06-17T07:58:34.647Z,7160
2017-06-17T07:59:44.990Z,5464
2017-06-17T08:00:55.069Z,4720
2017-06-17T08:02:05.419Z,4632
2017-06-17T08:03:15.466Z,7028
2017-06-17T08:04:25.856Z,6212
2017-06-17T08:05:36.246Z,6944
2017-06-17T08:06:46.659Z,6872
2017-06-17T08:07:57.000Z,7016
2017-06-17T08:09:07.339Z,7120
2017-06-17T08:10:17.704Z,7276
2017-06-17T08:11:28.071Z,7568
2017-06-17T08:12:38.424Z,8264
2017-06-17T08:13:48.464Z,8844
2017-06-17T08:14:58.501Z,9084
2017-06-17T08:16:08.857Z,8144
2017-06-17T08:17:19.197Z,7968
2017-06-17T08:18:29.302Z,9104
2017-06-17T08:19:39.655Z,7540
2017-06-17T08:20:49.705Z,5684
2017-06-17T08:22:00.073Z,6408
2017-06-17T08:23:10.435Z,7612
2017-06-17T08:24:20.850Z,9980
2017-06-17T08:25:31.222Z,7856
2017-06-17T08:26:41.611Z,7620
2017-06-17T08:27:51.661Z,8272
2017-06-17T08:29:02.024Z,10980
2017-06-17T08:30:12.073Z,8976
2017-06-17T08:31:22.122Z,9604
2017-06-17T08:32:32.165Z,10640
2017-06-17T08:33:42.501Z,12264
2017-06-17T08:34:52.863Z,12112
2017-06-17T08:36:02.974Z,10444
2017-06-17T08:37:13.361Z,9912
2017-06-17T08:38:24.010Z,9204
2017-06-17T08:39:34.059Z,8812
2017-06-17T08:40:44.093Z,8552
2017-06-17T08:41:54.173Z,8304
2017-06-17T08:43:04.523Z,8264
2017-06-17T08:44:14.871Z,8380
2017-06-17T08:45:24.908Z,8396
2017-06-17T08:46:35.269Z,8172
2017-06-17T08:47:45.427Z,8432
2017-06-17T08:48:55.781Z,9696
2017-06-17T08:50:05.834Z,6420
2017-06-17T08:51:15.890Z,7512
2017-06-17T08:52:26.244Z,5592
2017-06-17T08:53:36.652Z,7528
2017-06-17T08:54:46.994Z,8056
2017-06-17T08:55:56.719Z,8840
2017-06-17T08:57:07.065Z,9584
2017-06-17T08:58:17.417Z,10632
2017-06-17T08:59:27.822Z,11964
2017-06-17T09:00:37.563Z,11772
2017-06-17T09:01:47.917Z,11452
2017-06-17T09:02:58.282Z,11944
2017-06-17T09:04:08.625Z,12204
2017-06-17T09:05:18.660Z,9216
2017-06-17T09:06:29.029Z,8572
2017-06-17T09:07:39.392Z,8132
2017-06-17T09:08:49.745Z,7940
2017-06-17T09:10:00.100Z,7960
2017-06-17T09:11:10.152Z,10004
2017-06-17T09:12:19.586Z,10232
2017-06-17T09:13:29.635Z,8736
2017-06-17T09:14:40.001Z,10016
2017-06-17T09:15:50.350Z,8740
2017-06-17T09:17:00.709Z,10740
2017-06-17T09:18:11.073Z,11380
2017-06-17T09:19:21.115Z,9624
2017-06-17T09:20:30.860Z,10188
2017-06-17T09:21:40.916Z,8284
2017-06-17T09:22:51.331Z,6788
2017-06-17T09:24:01.693Z,9252
2017-06-17T09:25:12.060Z,6024
2017-06-17T09:26:22.397Z,6120
2017-06-17T09:27:32.731Z,6840
2017-06-17T09:28:42.815Z,7044
2017-06-17T09:29:53.185Z,6956
2017-06-17T09:31:03.534Z,6004
2017-06-17T09:32:13.887Z,5676
2017-06-17T09:33:24.246Z,5764
2017-06-17T09:34:34.660Z,6188
2017-06-17T09:35:45.023Z,6972
2017-06-17T09:36:55.378Z,7736
2017-06-17T09:38:05.729Z,8952
2017-06-17T09:39:15.761Z,12464
2017-06-17T09:40:26.171Z,9328
2017-06-17T09:41:36.224Z,12296
2017-06-17T09:42:46.269Z,9432
2017-06-17T09:43:56.630Z,9336
2017-06-17T09:45:07.014Z,9616
2017-06-17T09:46:17.364Z,9652
2017-06-17T09:47:27.712Z,12848
2017-06-17T09:48:38.077Z,12924
2017-06-17T09:49:48.429Z,12352
2017-06-17T09:50:58.788Z,11060
2017-06-17T09:52:09.138Z,11356
2017-06-17T09:53:19.200Z,11268
2017-06-17T09:54:29.240Z,7220
2017-06-17T09:55:39.578Z,6900
2017-06-17T09:56:49.921Z,7016
2017-06-17T09:58:00.322Z,9372
2017-06-17T09:59:10.365Z,9984
2017-06-17T10:00:20.725Z,9560
2017-06-17T10:01:31.072Z,9344
2017-06-17T10:02:41.443Z,9152
2017-06-17T10:03:51.858Z,8788
2017-06-17T10:05:02.200Z,8616
2017-06-17T10:06:11.932Z,8896
2017-06-17T10:07:21.978Z,9176
2017-06-17T10:08:32.334Z,9680
2017-06-17T10:09:42.373Z,10280
2017-06-17T10:10:52.728Z,10792
2017-06-17T10:12:03.098Z,11404
2017-06-17T10:13:13.466Z,11980
2017-06-17T10:14:23.509Z,12484
2017-06-17T10:15:33.921Z,12916
2017-06-17T10:16:43.669Z,13004
2017-06-17T10:17:53.739Z,13028
2017-06-17T10:19:04.089Z,10552
2017-06-17T10:20:14.132Z,9148
2017-06-17T10:21:24.539Z,10200
2017-06-17T10:22:34.886Z,9192
2017-06-17T10:23:44.968Z,11640
2017-06-17T10:24:54.728Z,11928
2017-06-17T10:26:05.096Z,11912
2017-06-17T10:27:15.514Z,11848
2017-06-17T10:28:25.860Z,11840
2017-06-17T10:29:36.219Z,7612
2017-06-17T10:30:46.574Z,7156
2017-06-17T10:31:56.639Z,7088
2017-06-17T10:33:07.065Z,7912
2017-06-17T10:34:16.489Z,10732
2017-06-17T10:35:26.854Z,10308
2017-06-17T10:36:37.201Z,10048
2017-06-17T10:37:47.545Z,10060
2017-06-17T10:38:57.901Z,8772
2017-06-17T10:40:08.266Z,9464
2017-06-17T10:41:18.635Z,9348
2017-06-17T10:42:28.993Z,9200
2017-06-17T10:43:39.367Z,9328
2017-06-17T10:44:49.725Z,9780
2017-06-17T10:46:00.066Z,10856
2017-06-17T10:47:10.102Z,9872
2017-06-17T10:48:20.158Z,12936
2017-06-17T10:49:30.510Z,13260
2017-06-17T10:50:40.865Z,11364
2017-06-17T10:51:51.248Z,10200
2017-06-17T10:53:01.590Z,9932
2017-06-17T10:54:11.951Z,8984
2017-06-17T10:55:21.997Z,7904
2017-06-17T10:56:32.390Z,7476
2017-06-17T10:57:41.810Z,7784
2017-06-17T10:58:52.170Z,8060
2017-06-17T11:00:02.532Z,8228
2017-06-17T11:01:12.879Z,8064
2017-06-17T11:02:23.295Z,8480
2017-06-17T11:03:33.352Z,9064
2017-06-17T11:04:43.089Z,13804
2017-06-17T11:05:53.472Z,9644
2017-06-17T11:07:03.827Z,9896
2017-06-17T11:08:14.225Z,8324
2017-06-17T11:09:24.610Z,8152
2017-06-17T11:10:34.972Z,12404
2017-06-17T11:11:44.991Z,10660
2017-06-17T11:12:55.350Z,8968
2017-06-17T11:14:05.701Z,8880
2017-06-17T11:15:15.754Z,9028
2017-06-17T11:16:26.111Z,9468
2017-06-17T11:17:36.462Z,14272
2017-06-17T11:18:46.488Z,11108
2017-06-17T11:19:56.847Z,10696
2017-06-17T11:21:07.394Z,10328
2017-06-17T11:22:17.750Z,10692
2017-06-17T11:23:28.128Z,13892
2017-06-17T11:24:38.493Z,11992
2017-06-17T11:25:48.856Z,11320
2017-06-17T11:26:58.901Z,11824
2017-06-17T11:28:09.286Z,10780
2017-06-17T11:29:19.668Z,10860
2017-06-17T11:30:29.712Z,11088
2017-06-17T11:31:39.831Z,11780
2017-06-17T11:32:50.205Z,11492
2017-06-17T11:34:00.554Z,11760
2017-06-17T11:35:10.927Z,11568
2017-06-17T11:36:21.289Z,11560
2017-06-17T11:37:31.629Z,11568
2017-06-17T11:38:41.670Z,10956
2017-06-17T11:39:52.020Z,11472
2017-06-17T11:41:02.055Z,9988
2017-06-17T11:42:11.778Z,9320
2017-06-17T11:43:21.554Z,8916
2017-06-17T11:44:31.914Z,8812
2017-06-17T11:45:42.251Z,8608
2017-06-17T11:46:52.302Z,8552
2017-06-17T11:48:02.355Z,8576
2017-06-17T11:49:12.756Z,8648
2017-06-17T11:50:23.097Z,8968
2017-06-17T11:51:33.174Z,9208
2017-06-17T11:52:43.523Z,9552
2017-06-17T11:53:53.881Z,10376
2017-06-17T11:55:04.296Z,10244
2017-06-17T11:56:14.666Z,10300
2017-06-17T11:57:25.030Z,10380
2017-06-17T11:58:35.385Z,11284
2017-06-17T11:59:45.431Z,12584
2017-06-17T12:00:55.465Z,13476
2017-06-17T12:02:05.519Z,13120
2017-06-17T12:03:15.581Z,12772
2017-06-17T12:04:25.939Z,11612
2017-06-17T12:05:36.290Z,11044
2017-06-17T12:06:46.385Z,9960
2017-06-17T12:07:56.429Z,9672
2017-06-17T12:09:06.470Z,8916
2017-06-17T12:10:16.830Z,8280
2017-06-17T12:11:26.874Z,6132
2017-06-17T12:12:37.290Z,5432
2017-06-17T12:13:47.668Z,5128
2017-06-17T12:14:57.711Z,4972
2017-06-17T12:16:08.066Z,4824
2017-06-17T12:17:17.812Z,4728
2017-06-17T12:18:27.852Z,4636
2017-06-17T12:19:37.901Z,4544
2017-06-17T12:20:47.618Z,4440
2017-06-17T12:21:57.037Z,4284
2017-06-17T12:23:07.082Z,4172
2017-06-17T12:24:16.836Z,4048
2017-06-17T12:25:27.190Z,4000
2017-06-17T12:26:37.225Z,4044
2017-06-17T12:27:47.588Z,4168
2017-06-17T12:28:57.615Z,4368
2017-06-17T12:30:07.996Z,4524
2017-06-17T12:31:18.353Z,4768
2017-06-17T12:32:28.391Z,5044
2017-06-17T12:33:38.463Z,5164
2017-06-17T12:34:48.510Z,5152
2017-06-17T12:35:58.600Z,5088
2017-06-17T12:37:08.948Z,5068
2017-06-17T12:38:19.313Z,5116
2017-06-17T12:39:29.679Z,5224
2017-06-17T12:40:40.043Z,5388
2017-06-17T12:41:50.463Z,5616
2017-06-17T12:43:00.829Z,5872
2017-06-17T12:44:11.159Z,6164
2017-06-17T12:45:21.205Z,6440
2017-06-17T12:46:31.608Z,6744
2017-06-17T12:47:41.959Z,7028
2017-06-17T12:48:52.006Z,7268
2017-06-17T12:50:02.361Z,7440
2017-06-17T12:51:12.100Z,7528
2017-06-17T12:52:22.192Z,7284
2017-06-17T12:53:32.293Z,6856
2017-06-17T12:54:42.649Z,6520
2017-06-17T12:55:52.388Z,6176
2017-06-17T12:57:02.741Z,5848
2017-06-17T12:58:13.100Z,5680
2017-06-17T12:59:23.196Z,5620
2017-06-17T13:00:33.546Z,5648
2017-06-17T13:01:43.896Z,5656
2017-06-17T13:02:54.253Z,5688
2017-06-17T13:04:04.632Z,5760
2017-06-17T13:05:14.978Z,5828
2017-06-17T13:06:25.329Z,5748
2017-06-17T13:07:35.673Z,5784
2017-06-17T13:08:46.031Z,5768
2017-06-17T13:09:56.381Z,5648
2017-06-17T13:11:06.783Z,5444
2017-06-17T13:12:17.142Z,5264
2017-06-17T13:13:27.504Z,5200
2017-06-17T13:14:37.855Z,5272
2017-06-17T13:15:48.212Z,5384
2017-06-17T13:16:58.556Z,5500
2017-06-17T13:18:08.914Z,5500
2017-06-17T13:19:18.657Z,5360
2017-06-17T13:20:29.012Z,5356
2017-06-17T13:21:39.382Z,5592
2017-06-17T13:22:49.746Z,6000
2017-06-17T13:24:00.081Z,6316
2017-06-17T13:25:10.457Z,6568
2017-06-17T13:26:20.494Z,6796
2017-06-17T13:27:30.228Z,7012
2017-06-17T13:28:40.634Z,7156
2017-06-17T13:29:50.991Z,7184
2017-06-17T13:31:01.342Z,7132
2017-06-17T13:32:11.688Z,6972
2017-06-17T13:33:21.721Z,6876
2017-06-17T13:34:32.126Z,6828
2017-06-17T13:35:42.176Z,6880
2017-06-17T13:36:52.518Z,7004
2017-06-17T13:38:02.561Z,7120
2017-06-17T13:39:12.914Z,7276
2017-06-17T13:40:23.336Z,7336
2017-06-17T13:41:33.690Z,7428
2017-06-17T13:42:44.027Z,7460
2017-06-17T13:43:54.073Z,7460
2017-06-17T13:45:04.425Z,7396
2017-06-17T13:46:14.523Z,7304
2017-06-17T13:47:24.886Z,7280
2017-06-17T13:48:35.280Z,7208
2017-06-17T13:49:45.655Z,7104
2017-06-17T13:50:56.013Z,7060
2017-06-17T13:52:06.416Z,7072
2017-06-17T13:53:15.830Z,7112
2017-06-17T13:54:26.194Z,7172
2017-06-17T13:55:36.313Z,7216
2017-06-17T13:56:46.685Z,7248
2017-06-17T13:57:56.526Z,7240
2017-06-17T13:59:06.243Z,7240
2017-06-17T14:00:16.324Z,7236
2017-06-17T14:01:26.362Z,7212
2017-06-17T14:02:36.724Z,7220
2017-06-17T14:03:46.771Z,7220
2017-06-17T14:04:57.115Z,7208
2017-06-17T14:06:07.499Z,7204
2017-06-17T14:07:17.543Z,7224
2017-06-17T14:08:27.907Z,7284
2017-06-17T14:09:38.011Z,7380
2017-06-17T14:10:48.378Z,7496
2017-06-17T14:11:58.742Z,7576
2017-06-17T14:13:09.117Z,7628
2017-06-17T14:14:19.471Z,7672
2017-06-17T14:15:29.560Z,7752
2017-06-17T14:16:39.902Z,7772
2017-06-17T14:17:50.281Z,7768
2017-06-17T14:19:00.648Z,7704
2017-06-17T14:20:10.976Z,7644
2017-06-17T14:21:21.336Z,7652
2017-06-17T14:22:31.079Z,7700
2017-06-17T14:23:41.429Z,7816
2017-06-17T14:24:51.481Z,7912
2017-06-17T14:26:01.843Z,8012
2017-06-17T14:27:12.250Z,8092
2017-06-17T14:28:22.581Z,8092
2017-06-17T14:29:32.625Z,8136
2017-06-17T14:30:42.986Z,8188
2017-06-17T14:31:53.327Z,8316
2017-06-17T14:33:03.415Z,8456
2017-06-17T14:34:13.754Z,8572
2017-06-17T14:35:24.119Z,8588
2017-06-17T14:36:34.464Z,8620
2017-06-17T14:37:44.513Z,8628
2017-06-17T14:38:54.925Z,8552
2017-06-17T14:40:05.284Z,8192
2017-06-17T14:41:15.650Z,7732
2017-06-17T14:42:25.686Z,7464
2017-06-17T14:43:36.028Z,7348
2017-06-17T14:44:46.420Z,7280
2017-06-17T14:45:56.789Z,7044
2017-06-17T14:47:07.165Z,6808
2017-06-17T14:48:17.223Z,6636
2017-06-17T14:49:27.599Z,6332
2017-06-17T14:50:37.960Z,6076
2017-06-17T14:51:48.293Z,5848
2017-06-17T14:52:58.643Z,5668
2017-06-17T14:54:08.997Z,5440
2017-06-17T14:55:19.063Z,5240
2017-06-17T14:56:29.396Z,5076
2017-06-17T14:57:39.432Z,4928
2017-06-17T14:58:49.487Z,4776
2017-06-17T14:59:59.820Z,4592
2017-06-17T15:01:09.879Z,4440
2017-06-17T15:02:20.013Z,4292
2017-06-17T15:03:30.050Z,4132
2017-06-17T15:04:40.082Z,3992
2017-06-17T15:05:50.139Z,3860
2017-06-17T15:07:00.485Z,3736
2017-06-17T15:08:10.586Z,3648
2017-06-17T15:09:20.635Z,3576
2017-06-17T15:10:30.723Z,3524
2017-06-17T15:11:40.753Z,3520
2017-06-17T15:12:51.103Z,3552
2017-06-17T15:14:01.541Z,3656
2017-06-17T15:15:11.921Z,3824
2017-06-17T15:16:21.978Z,3880
2017-06-17T15:17:32.013Z,3804
2017-06-17T15:18:42.076Z,3668
2017-06-17T15:19:52.430Z,3540
2017-06-17T15:21:02.515Z,3408
2017-06-17T15:22:13.108Z,3288
2017-06-17T15:23:23.459Z,3196
2017-06-17T15:24:33.843Z,3120
2017-06-17T15:25:43.906Z,3076
2017-06-17T15:26:54.260Z,3060
2017-06-17T15:28:04.312Z,3028
2017-06-17T15:29:14.648Z,2972
2017-06-17T15:30:24.676Z,2896
2017-06-17T15:31:35.181Z,2868
2017-06-17T15:32:45.216Z,2864
2017-06-17T15:33:55.543Z,2832
2017-06-17T15:35:05.895Z,2780
2017-06-17T15:36:15.940Z,2720
2017-06-17T15:37:26.284Z,2664
2017-06-17T15:38:36.628Z,2620
2017-06-17T15:39:46.390Z,2628
2017-06-17T15:40:56.956Z,2724
2017-06-17T15:42:07.323Z,2880
2017-06-17T15:43:17.399Z,3028
2017-06-17T15:44:27.760Z,3192
2017-06-17T15:45:38.128Z,3344
2017-06-17T15:46:48.500Z,3484
2017-06-17T15:47:58.867Z,3604
2017-06-17T15:49:09.274Z,3668
2017-06-17T15:50:19.617Z,3772
2017-06-17T15:51:30.100Z,3752
2017-06-17T15:52:40.485Z,3608
2017-06-17T15:53:50.846Z,3440
2017-06-17T15:55:01.232Z,3280
2017-06-17T15:56:11.573Z,3176
2017-06-17T15:57:22.429Z,3112
2017-06-17T15:58:32.802Z,3056
2017-06-17T15:59:43.175Z,3088
2017-06-17T16:00:53.648Z,3068
2017-06-17T16:02:03.989Z,3012
2017-06-17T16:03:14.329Z,2948
2017-06-17T16:04:24.693Z,2884
2017-06-17T16:05:35.039Z,2824
2017-06-17T16:06:45.386Z,2832
2017-06-17T16:07:55.734Z,2800
2017-06-17T16:09:06.100Z,2748
2017-06-17T16:10:16.155Z,2752
2017-06-17T16:11:26.195Z,2916
2017-06-17T16:12:36.759Z,3172
2017-06-17T16:13:47.118Z,3184
2017-06-17T16:14:57.462Z,2876
2017-06-17T16:16:07.814Z,2496
2017-06-17T16:17:17.853Z,2276